Login
Access
Login with your mtb-forum.it nickname and password.


You do not have an account? Sign up here for free

Melkor79™

Last training unit 10/12/2017
1
Followers
76 312 Km
itineraries
809 763 m
of total vertical gain
2901
hours of riding
26.33 Km/h
average speed
100
average HR


10/12/2017 Show to everybody q4_i3-2 114.35 Km 961 m 04:17:25 26.65 Km\h S-WORKS SL6 Tarmac Ultralight
08/12/2017 Show to everybody q4_i3 119.04 Km 903 m 04:27:38 26.69 Km\h S-WORKS SL6 Tarmac Ultralight
06/12/2017 Show to everybody q3_i2 88.08 Km 604 m 03:09:54 27.83 Km\h S-WORKS SL6 Tarmac Ultralight
05/12/2017 Show to everybody q4_i3 101.39 Km 721 m 03:42:55 27.29 Km\h S-WORKS SL6 Tarmac Ultralight
03/12/2017 Show to everybody q1_i1 31.84 Km 420 m 01:29:59 21.23 Km\h S-WORKS SL5 TARMAC
29/11/2017 Show to everybody q2_i1 48.33 Km 228 m 01:48:43 26.67 Km\h S-WORKS SL5 TARMAC
26/11/2017 Show to everybody q4_i2 102.93 Km 937 m 03:56:40 26.09 Km\h S-WORKS SL5 TARMAC
25/11/2017 Show to everybody q2_i3 48.33 Km 629 m 01:51:29 26.01 Km\h S-WORKS SL5 TARMAC
24/11/2017 Show to everybody q1_i1-2 40.67 Km 239 m 01:33:43 26.04 Km\h S-WORKS SL5 TARMAC
21/11/2017 Show to everybody q2_i1 48.73 Km 189 m 01:53:43 25.71 Km\h S-WORKS SL5 TARMAC
20/11/2017 Show to everybody q1_i1 40.91 Km 232 m 01:35:25 25.73 Km\h S-WORKS SL5 TARMAC
19/11/2017 Show to everybody q3_i2 103.16 Km 697 m 03:42:29 27.82 Km\h S-WORKS SL5 TARMAC
18/11/2017 Show to everybody q2_i2 60.19 Km 288 m 02:03:31 29.24 Km\h S-WORKS SL5 TARMAC
15/11/2017 Show to everybody q1_i1 41.36 Km 195 m 01:32:47 26.75 Km\h S-WORKS SL5 TARMAC
12/11/2017 Show to everybody q4_i2 117.1 Km 1238 m 04:36:09 25.44 Km\h S-WORKS SL5 TARMAC
05/11/2017 Show to everybody q3_i2 96.56 Km 785 m 03:36:44 26.73 Km\h S-WORKS SL5 TARMAC
04/11/2017 Show to everybody q2_i3 49.14 Km 747 m 02:01:03 24.36 Km\h S-WORKS SL5 TARMAC
01/11/2017 Show to everybody q4_i3 120.73 Km 939 m 04:25:47 27.25 Km\h S-WORKS SL5 TARMAC
28/10/2017 Show to everybody test_bike_q2_i2 48.62 Km 423 m 01:48:23 26.91 Km\h S-WORKS SL5 TARMAC
26/10/2017 Show to everybody q1_i2 30.79 Km 157 m 01:05:51 28.05 Km\h S-WORKS SL5 TARMAC
22/10/2017 Show to everybody q4_i2 114.13 Km 915 m 04:12:48 27.09 Km\h S-WORKS SL5 TARMAC
20/10/2017 Show to everybody q2_i2 51.27 Km 641 m 02:03:29 24.91 Km\h S-WORKS SL5 TARMAC
17/10/2017 Show to everybody q1_i1 39.38 Km 212 m 01:27:37 26.97 Km\h S-WORKS SL5 TARMAC
15/10/2017 Show to everybody q3_i2 80.64 Km 465 m 02:56:08 27.47 Km\h S-WORKS SL5 TARMAC
14/10/2017 Show to everybody q2_i2 54.07 Km 471 m 02:00:31 26.92 Km\h S-WORKS SL5 TARMAC
13/10/2017 Show to everybody q2_i3 39.47 Km 590 m 01:40:18 23.61 Km\h S-WORKS SL5 TARMAC
11/10/2017 Show to everybody q3_i2 92.23 Km 684 m 03:22:45 27.29 Km\h S-WORKS SL5 TARMAC
08/10/2017 Show to everybody q2_i5 26.53 Km 736 m 01:43:44 15.35 Km\h S-WORKS SL5 TARMAC
07/10/2017 Show to everybody q1_i2 40.94 Km 188 m 01:35:43 25.66 Km\h S-WORKS SL5 TARMAC
06/10/2017 Show to everybody q2_i2 67.42 Km 556 m 02:33:14 26.4 Km\h S-WORKS SL5 TARMAC
03/10/2017 Show to everybody q3_i2 88.08 Km 1001 m 03:35:41 24.5 Km\h S-WORKS SL5 TARMAC
02/10/2017 Show to everybody q1_i4 35.93 Km 583 m 01:22:18 26.2 Km\h S-WORKS SL5 TARMAC
01/10/2017 Show to everybody prima_parte 41.26 Km 205 m 01:29:55 27.53 Km\h S-WORKS SL5 TARMAC
01/10/2017 Show to everybody q4_i3_seconda_parte 78.16 Km 888 m 02:57:12 26.46 Km\h S-WORKS SL5 TARMAC
30/09/2017 Show to everybody activity_2021058844 36.93 Km 338 m 01:17:17 28.67 Km\h S-WORKS SL5 TARMAC
28/09/2017 Show to everybody q1_i1 40.19 Km 245 m 01:27:45 27.48 Km\h S-WORKS SL5 TARMAC
25/09/2017 Show to everybody q1_i1 39.9 Km 239 m 01:31:50 26.07 Km\h S-WORKS SL5 TARMAC
24/09/2017 Show to everybody q4_i2 110.54 Km 800 m 04:11:44 26.35 Km\h S-WORKS SL5 TARMAC
23/09/2017 Show to everybody q2_i3 53.08 Km 507 m 01:53:11 28.14 Km\h S-WORKS SL5 TARMAC
22/09/2017 Show to everybody q2_i2 67.31 Km 352 m 02:30:58 26.75 Km\h S-WORKS SL5 TARMAC
19/09/2017 Show to everybody q1_i2 39.77 Km 219 m 01:24:25 28.27 Km\h S-WORKS SL5 TARMAC
17/09/2017 Show to everybody q4_i1 112.47 Km 829 m 04:17:37 26.2 Km\h S-WORKS SL5 TARMAC
16/09/2017 Show to everybody q2_i3 50.33 Km 893 m 01:56:48 25.85 Km\h S-WORKS SL5 TARMAC
15/09/2017 Show to everybody q2_i2-2 67.15 Km 353 m 02:27:28 27.32 Km\h S-WORKS SL5 TARMAC
14/09/2017 Show to everybody q2_i2 68.62 Km 432 m 02:29:52 27.47 Km\h S-WORKS SL5 TARMAC
10/09/2017 Show to everybody q5_i3 125 Km 1217 m 04:26:24 28.15 Km\h S-WORKS SL5 TARMAC
07/09/2017 Show to everybody q4_i2 103.36 Km 906 m 03:55:11 26.37 Km\h S-WORKS SL5 TARMAC
05/09/2017 Show to everybody giro_mattutino 99.15 Km 633 m 03:15:54 30.37 Km\h S-WORKS SL5 TARMAC
03/09/2017 Show to everybody q2_i1 47.13 Km 150 m 01:54:54 24.61 Km\h S-WORKS SL5 TARMAC
01/09/2017 Show to everybody q3_i2 85.4 Km 493 m 03:02:39 28.05 Km\h S-WORKS SL5 TARMAC
30/08/2017 Show to everybody q3_i1 87.37 Km 565 m 03:06:00 28.18 Km\h S-WORKS SL5 TARMAC
28/08/2017 Show to everybody q2_i1 67.36 Km 360 m 02:22:03 28.45 Km\h S-WORKS SL5 TARMAC
24/08/2017 Show to everybody q2_i3-2 44.45 Km 488 m 01:37:30 27.35 Km\h S-WORKS SL5 TARMAC
23/08/2017 Show to everybody q2_i3 50.43 Km 756 m 01:54:27 26.44 Km\h S-WORKS SL5 TARMAC
22/08/2017 Show to everybody q2_i1 42.26 Km 371 m 01:44:47 24.2 Km\h S-WORKS SL5 TARMAC
21/08/2017 Show to everybody q1_i3 43.18 Km 463 m 01:32:27 28.03 Km\h S-WORKS SL5 TARMAC
16/08/2017 Show to everybody q3_i4 80.95 Km 1079 m 02:47:29 29 Km\h S-WORKS SL5 TARMAC
14/08/2017 Show to everybody q2_i2 54.45 Km 686 m 02:19:21 23.44 Km\h S-WORKS SL5 TARMAC
12/08/2017 Show to everybody q4_i5 67.83 Km 1607 m 03:55:08 17.31 Km\h S-WORKS SL5 TARMAC
10/08/2017 Show to everybody q4_i2 90.6 Km 1553 m 03:48:40 23.77 Km\h S-WORKS SL5 TARMAC
07/08/2017 Show to everybody q2_i3 50.12 Km 621 m 01:54:29 26.27 Km\h S-WORKS SL5 TARMAC
04/08/2017 Show to everybody q4_i2 105.49 Km 2315 m 04:22:51 24.08 Km\h S-WORKS SL5 TARMAC
03/08/2017 Show to everybody q1_i3 35.49 Km 555 m 01:27:18 24.4 Km\h S-WORKS SL5 TARMAC
01/08/2017 Show to everybody q3_i2 86.07 Km 1139 m 03:36:12 23.89 Km\h S-WORKS SL5 TARMAC
29/07/2017 Show to everybody q5_i3 120.81 Km 2410 m 05:03:30 23.88 Km\h S-WORKS SL5 TARMAC
27/07/2017 Show to everybody q4_i3 104.59 Km 952 m 03:50:45 27.2 Km\h S-WORKS SL5 TARMAC
22/07/2017 Show to everybody q1_i2 26.7 Km 292 m 01:07:00 23.91 Km\h S-WORKS SL5 TARMAC
21/07/2017 Show to everybody q4_i4 104.55 Km 1755 m 04:07:50 25.31 Km\h S-WORKS SL5 TARMAC
19/07/2017 Show to everybody q2_i2 71.57 Km 463 m 02:39:59 26.84 Km\h S-WORKS SL5 TARMAC
18/07/2017 Show to everybody q4_i4 103.06 Km 2579 m 04:24:24 23.39 Km\h S-WORKS SL5 TARMAC
13/07/2017 Show to everybody q4_i3 94.18 Km 2091 m 04:01:24 23.41 Km\h S-WORKS SL5 TARMAC
12/07/2017 Show to everybody q4_i2 90.63 Km 1188 m 03:45:08 24.15 Km\h S-WORKS SL5 TARMAC
11/07/2017 Show to everybody q2_i2 63.96 Km 813 m 02:32:51 25.11 Km\h S-WORKS SL5 TARMAC
09/07/2017 Show to everybody q2_i4 42.7 Km 1048 m 02:37:35 16.26 Km\h S-WORKS SL5 TARMAC
07/07/2017 Show to everybody q2_i1 67.71 Km 400 m 02:38:51 25.58 Km\h S-WORKS SL5 TARMAC
06/07/2017 Show to everybody q4_i3 104.28 Km 1960 m 04:18:45 24.18 Km\h S-WORKS SL5 TARMAC
04/07/2017 Show to everybody q4_i4 118.55 Km 1974 m 04:35:00 25.87 Km\h S-WORKS SL5 TARMAC
01/07/2017 Show to everybody q2_i1 59.56 Km 323 m 02:13:13 26.83 Km\h S-WORKS SL5 TARMAC
29/06/2017 Show to everybody q5_i3 145.49 Km 1511 m 05:39:01 25.75 Km\h S-WORKS SL5 TARMAC
28/06/2017 Show to everybody q3_i2 78.34 Km 667 m 02:52:22 27.27 Km\h S-WORKS SL5 TARMAC
25/06/2017 Show to everybody q3_i2 52.36 Km 1149 m 03:31:31 14.85 Km\h mtb
23/06/2017 Show to everybody q2_i2 70.51 Km 449 m 02:34:05 27.46 Km\h S-WORKS SL5 TARMAC
21/06/2017 Show to everybody q4_i3 103.22 Km 1998 m 04:12:16 24.55 Km\h S-WORKS SL5 TARMAC
20/06/2017 Show to everybody q2_i2 54.19 Km 702 m 02:08:30 25.3 Km\h S-WORKS SL5 TARMAC
19/06/2017 Show to everybody q1_i1 40.05 Km 268 m 01:33:30 25.7 Km\h S-WORKS SL5 TARMAC
17/06/2017 Show to everybody q4_i3 115.37 Km 1333 m 04:29:26 25.69 Km\h S-WORKS SL5 TARMAC
16/06/2017 Show to everybody q3_i3 72.46 Km 1380 m 02:51:09 25.4 Km\h S-WORKS SL5 TARMAC
14/06/2017 Show to everybody q4_i4 105.52 Km 2001 m 04:16:58 24.64 Km\h S-WORKS SL5 TARMAC
12/06/2017 Show to everybody q2_i2 40.94 Km 293 m 01:41:54 24.11 Km\h S-WORKS SL5 TARMAC
10/06/2017 Show to everybody q4_i3_ 115.18 Km 1353 m 04:25:16 26.05 Km\h S-WORKS SL5 TARMAC
09/06/2017 Show to everybody q3_i3 73.75 Km 832 m 02:42:15 27.27 Km\h S-WORKS SL5 TARMAC
07/06/2017 Show to everybody q4_i4 109.27 Km 2653 m 04:21:20 25.09 Km\h S-WORKS SL5 TARMAC
06/06/2017 Show to everybody q2_i3 57.04 Km 738 m 02:14:10 25.51 Km\h S-WORKS SL5 TARMAC
04/06/2017 Show to everybody q4_i3 96.97 Km 1976 m 04:19:56 22.38 Km\h S-WORKS SL5 TARMAC
01/06/2017 Show to everybody q4_i3 102.34 Km 1426 m 03:52:34 26.4 Km\h S-WORKS SL5 TARMAC
31/05/2017 Show to everybody q3_i2 106.97 Km 694 m 03:41:07 29.03 Km\h S-WORKS SL5 TARMAC
30/05/2017 Show to everybody q3_i4 79.95 Km 1062 m 02:57:16 27.06 Km\h S-WORKS SL5 TARMAC
28/05/2017 Show to everybody q4_i3 92.93 Km 1949 m 04:00:36 23.17 Km\h S-WORKS SL5 TARMAC
26/05/2017 Show to everybody q2_i4 57.29 Km 1101 m 02:19:11 24.7 Km\h S-WORKS SL5 TARMAC
24/05/2017 Show to everybody q4_i3 93.82 Km 1584 m 03:44:58 25.02 Km\h S-WORKS SL5 TARMAC
23/05/2017 Show to everybody q4_i4 90.84 Km 2033 m 03:41:17 24.63 Km\h S-WORKS SL5 TARMAC
21/05/2017 Show to everybody q4_i3 107.28 Km 946 m 04:07:02 26.06 Km\h S-WORKS SL5 TARMAC
20/05/2017 Show to everybody q4_i2 117.38 Km 1066 m 04:22:25 26.84 Km\h S-WORKS SL5 TARMAC
18/05/2017 Show to everybody q2_i4 69.67 Km 1003 m 02:30:43 27.74 Km\h S-WORKS SL5 TARMAC
16/05/2017 Show to everybody q3_i4 78.9 Km 1202 m 02:57:18 26.7 Km\h S-WORKS SL5 TARMAC
14/05/2017 Show to everybody q4_i3 98.7 Km 1378 m 03:39:52 26.93 Km\h S-WORKS SL5 TARMAC
13/05/2017 Show to everybody q4_i1 107.13 Km 1279 m 04:19:31 24.77 Km\h S-WORKS SL5 TARMAC
10/05/2017 Show to everybody q3_i2 82.35 Km 987 m 03:15:36 25.26 Km\h S-WORKS SL5 TARMAC
07/05/2017 Show to everybody q3_i2 82.07 Km 1092 m 03:23:22 24.21 Km\h S-WORKS SL5 TARMAC
05/05/2017 Show to everybody q3_i2 89.59 Km 1051 m 03:32:09 25.34 Km\h S-WORKS SL5 TARMAC
03/05/2017 Show to everybody q2_i2 55.91 Km 752 m 02:10:53 25.63 Km\h S-WORKS SL5 TARMAC
01/05/2017 Show to everybody q4_i2-2 118.71 Km 1192 m 04:27:56 26.58 Km\h S-WORKS SL5 TARMAC
30/04/2017 Show to everybody q4_i2 108.01 Km 1108 m 03:57:32 27.28 Km\h S-WORKS SL5 TARMAC
29/04/2017 Show to everybody q5_i3 128.9 Km 1429 m 04:35:22 28.09 Km\h S-WORKS SL5 TARMAC
25/04/2017 Show to everybody q5_i3 135.74 Km 1431 m 04:50:49 28.01 Km\h S-WORKS SL5 TARMAC
24/04/2017 Show to everybody q3_i1 69.87 Km 419 m 02:40:04 26.19 Km\h S-WORKS SL5 TARMAC
22/04/2017 Show to everybody q4_i2 96.79 Km 1048 m 03:43:49 25.95 Km\h S-WORKS SL5 TARMAC
20/04/2017 Show to everybody q2_i2 54.11 Km 541 m 01:53:28 28.62 Km\h S-WORKS SL5 TARMAC
19/04/2017 Show to everybody q2_i4 53.82 Km 1048 m 02:11:46 24.51 Km\h S-WORKS SL5 TARMAC
18/04/2017 Show to everybody preparazione_1_6_q2_i4 63.88 Km 1009 m 02:20:31 27.27 Km\h S-WORKS SL5 TARMAC
16/04/2017 Show to everybody buona_pasqua_q3_i2_ 87.32 Km 623 m 03:11:34 27.35 Km\h S-WORKS SL5 TARMAC
14/04/2017 Show to everybody giro_mattutino 87.12 Km 910 m 03:21:03 26 Km\h S-WORKS SL5 TARMAC
12/04/2017 Show to everybody giro_mattutino 41.25 Km 319 m 01:24:57 29.13 Km\h S-WORKS SL5 TARMAC
11/04/2017 Show to everybody giro_mattutino 63.22 Km 792 m 02:20:47 26.94 Km\h S-WORKS SL5 TARMAC
09/04/2017 Show to everybody oggi_mtb_ 61.22 Km 811 m 02:50:59 21.48 Km\h mtb
08/04/2017 Show to everybody giro_mattutino 99.55 Km 1203 m 04:03:37 24.52 Km\h S-WORKS SL5 TARMAC
06/04/2017 Show to everybody giro_mattutino 63.28 Km 1171 m 02:21:58 26.75 Km\h S-WORKS SL5 TARMAC
05/04/2017 Show to everybody 2_5 58.58 Km 1551 m 02:21:34 24.83 Km\h S-WORKS SL5 TARMAC
02/04/2017 Show to everybody giro_mattutino 88.1 Km 588 m 03:24:59 25.79 Km\h S-WORKS SL5 TARMAC
01/04/2017 Show to everybody giro_mattutino 135.09 Km 1748 m 05:05:22 26.54 Km\h S-WORKS SL5 TARMAC
30/03/2017 Show to everybody giro_mattutino 38.84 Km 244 m 01:28:22 26.37 Km\h S-WORKS SL5 TARMAC
26/03/2017 Show to everybody giro_mattutino 115.11 Km 881 m 03:54:41 29.43 Km\h S-WORKS SL5 TARMAC
25/03/2017 Show to everybody giro_mattutino 90.24 Km 628 m 03:14:01 27.91 Km\h S-WORKS SL5 TARMAC
24/03/2017 Show to everybody giro_mattutino 55.58 Km 892 m 02:14:26 24.81 Km\h S-WORKS SL5 TARMAC
22/03/2017 Show to everybody preparazione_2_3_settimana_ 68.29 Km 1048 m 02:36:44 26.14 Km\h S-WORKS SL5 TARMAC
21/03/2017 Show to everybody rt 71.76 Km 909 m 02:32:57 28.15 Km\h S-WORKS SL5 TARMAC
19/03/2017 Show to everybody giro_mattutino 104.49 Km 1364 m 04:06:02 25.48 Km\h S-WORKS SL5 TARMAC
18/03/2017 Show to everybody giro_mattutino 109.35 Km 1031 m 04:34:11 23.93 Km\h S-WORKS SL5 TARMAC
16/03/2017 Show to everybody r 62.98 Km 885 m 02:17:18 27.52 Km\h S-WORKS SL5 TARMAC
15/03/2017 Show to everybody t 70.36 Km 821 m 02:36:02 27.06 Km\h S-WORKS SL5 TARMAC
14/03/2017 Show to everybody giro_mattutino 63.77 Km 854 m 02:19:38 27.4 Km\h S-WORKS SL5 TARMAC
09/03/2017 Show to everybody preparazione_3_1 70.69 Km 839 m 02:38:16 26.8 Km\h S-WORKS SL5 TARMAC
05/03/2017 Show to everybody giro_mtb_ 39.57 Km 1271 m 03:10:38 12.46 Km\h mtb
04/03/2017 Show to everybody giro_mattutino 112.76 Km 899 m 03:59:55 28.2 Km\h S-WORKS SL5 TARMAC
03/03/2017 Show to everybody giro_mattutino 42.93 Km 265 m 01:42:56 25.02 Km\h S-WORKS SL5 TARMAC
02/03/2017 Show to everybody giro_mattutino 76.56 Km 723 m 03:20:55 22.86 Km\h S-WORKS SL5 TARMAC
28/02/2017 Show to everybody giro_mattutino 39.36 Km 301 m 01:27:22 27.03 Km\h S-WORKS SL5 TARMAC
26/02/2017 Show to everybody giro_mattutino-2 111.96 Km 861 m 03:52:18 28.92 Km\h S-WORKS SL5 TARMAC
24/02/2017 Show to everybody giro_mattutino 61.25 Km 393 m 02:32:33 24.09 Km\h S-WORKS SL5 TARMAC
23/02/2017 Show to everybody giro_mattutino 40.73 Km 287 m 01:35:23 25.62 Km\h S-WORKS SL5 TARMAC
21/02/2017 Show to everybody giro_mattutino 42.14 Km 282 m 01:44:57 24.09 Km\h S-WORKS SL5 TARMAC
19/02/2017 Show to everybody giro_mattutino 17.55 Km 97 m 00:54:56 19.17 Km\h S-WORKS SL5 TARMAC
12/02/2017 Show to everybody giro_mattutino 112.95 Km 952 m 04:05:45 27.58 Km\h S-WORKS SL5 TARMAC
11/02/2017 Show to everybody giro_mattutino 111.15 Km 862 m 04:19:10 25.73 Km\h S-WORKS SL5 TARMAC
08/02/2017 Show to everybody giro_mattutino 62.82 Km 1143 m 02:33:41 24.53 Km\h S-WORKS SL5 TARMAC
07/02/2017 Show to everybody giro_mattutino 83.81 Km 989 m 03:10:53 26.34 Km\h S-WORKS SL5 TARMAC
04/02/2017 Show to everybody giro_mattutino-3 79.24 Km 800 m 03:09:41 25.06 Km\h S-WORKS SL5 TARMAC
03/02/2017 Show to everybody giro_mattutino-2 39.94 Km 280 m 01:34:17 25.41 Km\h S-WORKS SL5 TARMAC
02/02/2017 Show to everybody giro_mattutino 39.51 Km 307 m 01:27:50 26.99 Km\h S-WORKS SL5 TARMAC
01/02/2017 Show to everybody giro_mattutino 87.46 Km 1011 m 03:35:37 24.34 Km\h S-WORKS SL5 TARMAC
31/01/2017 Show to everybody giro_mattutino-2 39.53 Km 293 m 01:29:17 26.57 Km\h S-WORKS SL5 TARMAC
28/01/2017 Show to everybody giro_mattutino 119.83 Km 941 m 04:23:22 27.3 Km\h S-WORKS SL5 TARMAC
27/01/2017 Show to everybody giro_mattutino 35.61 Km 610 m 01:32:12 23.17 Km\h S-WORKS SL5 TARMAC
26/01/2017 Show to everybody giro_mattutino-2 53.2 Km 504 m 02:04:01 25.74 Km\h S-WORKS SL5 TARMAC
25/01/2017 Show to everybody giro_mattutino 40.06 Km 298 m 01:28:51 27.05 Km\h S-WORKS SL5 TARMAC
22/01/2017 Show to everybody giro_mattutino 106.37 Km 835 m 03:50:56 27.64 Km\h S-WORKS SL5 TARMAC
21/01/2017 Show to everybody giro_mattutino 98.22 Km 732 m 03:39:35 26.84 Km\h S-WORKS SL5 TARMAC
20/01/2017 Show to everybody giro_dell_ora_di_pranzo 69.79 Km 662 m 02:36:44 26.72 Km\h S-WORKS SL5 TARMAC
18/01/2017 Show to everybody giro_mattutino 39.67 Km 295 m 01:30:10 26.39 Km\h S-WORKS SL5 TARMAC
03/12/2016 Show to everybody giro_mattutino 94.85 Km 839 m 03:46:27 25.13 Km\h S-WORKS SL5 TARMAC
02/12/2016 Show to everybody giro_mattutino-2 39.72 Km 296 m 01:28:39 26.88 Km\h S-WORKS SL5 TARMAC
01/12/2016 Show to everybody giro_mattutino 39.49 Km 306 m 01:24:37 28 Km\h S-WORKS SL5 TARMAC
30/11/2016 Show to everybody giro_mattutino 62.97 Km 418 m 02:31:34 24.93 Km\h S-WORKS SL5 TARMAC
27/11/2016 Show to everybody mtb 46.58 Km 1017 m 03:04:47 15.13 Km\h mtb
26/11/2016 Show to everybody giro_mattutino 93.96 Km 825 m 03:31:22 26.67 Km\h S-WORKS SL5 TARMAC
24/11/2016 Show to everybody giro_mattutino 86.16 Km 905 m 03:21:54 25.6 Km\h S-WORKS SL5 TARMAC
20/11/2016 Show to everybody giro_mattutino 119.09 Km 1179 m 04:17:56 27.7 Km\h S-WORKS SL5 TARMAC
19/11/2016 Show to everybody giro_mattutino 116.35 Km 863 m 04:11:15 27.79 Km\h S-WORKS SL5 TARMAC
18/11/2016 Show to everybody giro_mattutino-2 39.59 Km 300 m 01:26:39 27.42 Km\h S-WORKS SL5 TARMAC
17/11/2016 Show to everybody giro_mattutino 92.69 Km 1079 m 03:50:33 24.12 Km\h S-WORKS SL5 TARMAC
14/11/2016 Show to everybody giro_mattutino 39.5 Km 293 m 01:24:10 28.16 Km\h S-WORKS SL5 TARMAC
13/11/2016 Show to everybody giro_mattutino 101.56 Km 692 m 03:27:07 29.42 Km\h S-WORKS SL5 TARMAC
06/11/2016 Show to everybody giro_mattutino 106.91 Km 771 m 03:58:24 26.91 Km\h S-WORKS SL5 TARMAC
05/11/2016 Show to everybody giro_mattutino 115.61 Km 863 m 04:08:40 27.89 Km\h S-WORKS SL5 TARMAC
03/11/2016 Show to everybody giro_mattutino 20.2 Km 90 m 00:36:53 32.86 Km\h S-WORKS SL5 TARMAC
03/11/2016 Show to everybody giro_pomeridiano 19.86 Km 178 m 00:51:07 23.31 Km\h S-WORKS SL5 TARMAC
01/11/2016 Show to everybody giro_mattutino 110.6 Km 883 m 03:54:11 28.34 Km\h S-WORKS SL5 TARMAC
30/10/2016 Show to everybody giro_mattutino 121.74 Km 854 m 04:03:29 30 Km\h S-WORKS SL5 TARMAC
29/10/2016 Show to everybody giro_mattutino 101.61 Km 688 m 03:43:30 27.28 Km\h S-WORKS SL5 TARMAC
26/10/2016 Show to everybody giro_mattutino-2 52.37 Km 670 m 02:01:11 25.93 Km\h S-WORKS SL5 TARMAC
25/10/2016 Show to everybody giro_mattutino 40.33 Km 285 m 01:33:42 25.82 Km\h S-WORKS SL5 TARMAC
23/10/2016 Show to everybody giro_mattutino 78.72 Km 585 m 03:06:54 25.27 Km\h S-WORKS SL5 TARMAC
22/10/2016 Show to everybody giro_mattutino 112.87 Km 848 m 04:06:38 27.46 Km\h S-WORKS SL5 TARMAC
21/10/2016 Show to everybody giro_mattutino-2 40.26 Km 273 m 01:25:08 28.38 Km\h S-WORKS SL5 TARMAC
18/10/2016 Show to everybody giro_pomeridiano 43.1 Km 224 m 01:41:29 25.48 Km\h S-WORKS SL5 TARMAC
16/10/2016 Show to everybody giro_mattutino 114.95 Km 802 m 04:04:03 28.26 Km\h S-WORKS SL5 TARMAC
15/10/2016 Show to everybody giro_mattutino-2 108.1 Km 784 m 03:49:52 28.22 Km\h S-WORKS SL5 TARMAC
14/10/2016 Show to everybody giro_mattutino 57.31 Km 394 m 02:02:31 28.07 Km\h S-WORKS SL5 TARMAC
12/10/2016 Show to everybody 765 36.9 Km 584 m 01:25:30 25.89 Km\h S-WORKS SL5 TARMAC
08/10/2016 Show to everybody giro_mattutino 51.95 Km 279 m 01:51:27 27.97 Km\h S-WORKS SL5 TARMAC
06/10/2016 Show to everybody 56 42.86 Km 354 m 01:26:30 29.73 Km\h S-WORKS SL5 TARMAC
04/10/2016 Show to everybody 404 59.35 Km 818 m 02:17:28 25.9 Km\h S-WORKS SL5 TARMAC
02/10/2016 Show to everybody 202 107.97 Km 783 m 03:49:33 28.22 Km\h S-WORKS SL5 TARMAC
01/10/2016 Show to everybody 101 109.24 Km 714 m 03:48:59 28.62 Km\h S-WORKS SL5 TARMAC
28/09/2016 Show to everybody giro_mattutino 67.88 Km 436 m 02:22:14 28.63 Km\h S-WORKS SL5 TARMAC
27/09/2016 Show to everybody giro_mattutino 40.35 Km 293 m 01:20:22 30.13 Km\h S-WORKS SL5 TARMAC
25/09/2016 Show to everybody giro_mattutino 121.8 Km 859 m 04:24:15 27.66 Km\h S-WORKS SL5 TARMAC
24/09/2016 Show to everybody giro_mattutino 98.76 Km 660 m 03:34:54 27.57 Km\h S-WORKS SL5 TARMAC
23/09/2016 Show to everybody giro_mattutino 87.94 Km 592 m 03:13:02 27.33 Km\h S-WORKS SL5 TARMAC
20/09/2016 Show to everybody giro_mattutino 39 Km 289 m 01:17:28 30.21 Km\h S-WORKS SL5 TARMAC
18/09/2016 Show to everybody giro_mattutino 79.98 Km 457 m 03:13:32 24.8 Km\h S-WORKS SL5 TARMAC
14/09/2016 Show to everybody giro_mattutino 55.81 Km 525 m 02:06:55 26.38 Km\h S-WORKS SL5 TARMAC
13/09/2016 Show to everybody giro_mattutino 66.85 Km 408 m 02:27:27 27.2 Km\h S-WORKS SL5 TARMAC
11/09/2016 Show to everybody activity_1353219384 112.91 Km 786 m 04:15:41 26.5 Km\h S-WORKS SL5 TARMAC
07/09/2016 Show to everybody giro_mattutino 49.24 Km 665 m 01:50:02 26.85 Km\h S-WORKS SL5 TARMAC
04/09/2016 Show to everybody giro_mattutino 119.01 Km 816 m 04:30:27 26.4 Km\h S-WORKS SL5 TARMAC
03/09/2016 Show to everybody giro_mattutino-2 82.39 Km 451 m 02:58:19 27.72 Km\h S-WORKS SL5 TARMAC
31/08/2016 Show to everybody 3 49.57 Km 203 m 01:47:59 27.55 Km\h S-WORKS SL5 TARMAC
31/08/2016 Show to everybody 3 49.57 Km 203 m 01:47:59 27.55 Km\h S-WORKS SL5 TARMAC
31/08/2016 Show to everybody 3 49.57 Km 203 m 01:47:59 27.55 Km\h S-WORKS SL5 TARMAC
31/08/2016 Show to everybody 3 49.57 Km 203 m 01:47:59 27.55 Km\h S-WORKS SL5 TARMAC
31/08/2016 Show to everybody giro 3 49.57 Km 203 m 01:47:59 27.55 Km\h S-WORKS SL5 TARMAC
31/08/2016 Show to everybody giro 49.57 Km 203 m 01:47:59 27.55 Km\h S-WORKS SL5 TARMAC
31/08/2016 Show to everybody giro 49.57 Km 203 m 01:47:59 27.55 Km\h S-WORKS SL5 TARMAC
31/07/2016 Show to everybody activity_1281429337 71.61 Km 1099 m 02:39:42 26.9 Km\h S-WORKS SL5 TARMAC
30/07/2016 Show to everybody giro_pomeridiano 59.87 Km 1055 m 02:15:28 26.52 Km\h S-WORKS SL5 TARMAC
28/07/2016 Show to everybody giro_mattutino 40.66 Km 243 m 01:28:40 27.52 Km\h S-WORKS SL5 TARMAC
27/07/2016 Show to everybody giro_mattutino 71.63 Km 1796 m 04:51:10 14.76 Km\h mtb
26/07/2016 Show to everybody giro_mattutino 103.93 Km 1993 m 03:51:41 26.92 Km\h S-WORKS SL5 TARMAC
24/07/2016 Show to everybody giro_pomeridiano 40.73 Km 615 m 01:29:15 27.38 Km\h S-WORKS SL5 TARMAC
22/07/2016 Show to everybody giro_pomeridiano 32.9 Km 642 m 01:13:21 26.91 Km\h S-WORKS SL5 TARMAC
19/07/2016 Show to everybody giro_mattutino 99.98 Km 817 m 03:15:26 30.69 Km\h S-WORKS SL5 TARMAC
18/07/2016 Show to everybody giro_mattutino 47.87 Km 761 m 01:36:47 29.68 Km\h S-WORKS SL5 TARMAC
18/07/2016 Show to everybody attivit_ 31.26 Km 98 m 01:03:58 29.32 Km\h S-WORKS SL5 TARMAC
17/07/2016 Show to everybody giro_pomeridiano 53.76 Km 848 m 01:54:12 28.24 Km\h S-WORKS SL5 TARMAC
16/07/2016 Show to everybody mtb 33.15 Km 745 m 01:59:20 16.67 Km\h mtb
14/07/2016 Show to everybody giro_mattutino 83.23 Km 1082 m 03:18:47 25.12 Km\h S-WORKS SL5 TARMAC
13/07/2016 Show to everybody giro_mattutino 88.43 Km 1213 m 03:17:02 26.93 Km\h S-WORKS SL5 TARMAC
12/07/2016 Show to everybody giro_mattutino 76.38 Km 850 m 02:40:10 28.61 Km\h S-WORKS SL5 TARMAC
10/07/2016 Show to everybody giro_mattutino 134.89 Km 1856 m 05:19:13 25.35 Km\h S-WORKS SL5 TARMAC
10/07/2016 Show to everybody giro_mattutino 134.89 Km 1856 m 05:19:13 25.35 Km\h S-WORKS SL5 TARMAC
08/07/2016 Show to everybody giro_mattutino 51.36 Km 1216 m 03:55:46 13.07 Km\h mtb
07/07/2016 Show to everybody giro_mattutino 40.24 Km 255 m 01:33:53 25.72 Km\h S-WORKS SL5 TARMAC
06/07/2016 Show to everybody giro_mattutino 94.25 Km 1872 m 03:44:13 25.22 Km\h S-WORKS SL5 TARMAC
05/07/2016 Show to everybody giro_mattutino 74.75 Km 565 m 02:37:59 28.39 Km\h S-WORKS SL5 TARMAC
03/07/2016 Show to everybody 3lu 163.71 Km 1687 m 05:29:51 29.78 Km\h S-WORKS SL5 TARMAC
02/07/2016 Show to everybody giro_mattutino 83.92 Km 497 m 03:02:21 27.61 Km\h S-WORKS SL5 TARMAC
01/07/2016 Show to everybody 1lui 52.43 Km 1195 m 03:43:23 14.08 Km\h mtb
30/06/2016 Show to everybody giro_mattutino 119.19 Km 1967 m 04:42:21 25.33 Km\h S-WORKS SL5 TARMAC
29/06/2016 Show to everybody prima_esperienza_in_mtb_positiva_ 32.02 Km 863 m 02:22:40 13.47 Km\h mtb
28/06/2016 Show to everybody giro_pomeridiano 78.08 Km 1214 m 03:01:11 25.86 Km\h S-WORKS SL5 TARMAC
26/06/2016 Show to everybody 26 148.28 Km 3092 m 06:44:31 21.99 Km\h S-WORKS SL5 TARMAC
25/06/2016 Show to everybody giro_mattutino 99.74 Km 740 m 03:37:49 27.47 Km\h S-WORKS SL5 TARMAC
24/06/2016 Show to everybody giro_mattutino 40.25 Km 280 m 01:21:39 29.58 Km\h S-WORKS SL5 TARMAC
23/06/2016 Show to everybody giro_mattutino 88.29 Km 581 m 03:18:02 26.75 Km\h S-WORKS SL5 TARMAC
22/06/2016 Show to everybody 22giu 70.79 Km 1279 m 02:35:48 27.26 Km\h S-WORKS SL5 TARMAC
21/06/2016 Show to everybody 21 81.37 Km 795 m 02:53:15 28.18 Km\h S-WORKS SL5 TARMAC
19/06/2016 Show to everybody 10 giu 82.88 Km 628 m 02:10:10 38.21 Km\h S-WORKS SL5 TARMAC
18/06/2016 Show to everybody giro_mattutino 50.23 Km 207 m 01:56:15 25.92 Km\h S-WORKS SL5 TARMAC
16/06/2016 Show to everybody giro_mattutino 105.11 Km 1095 m 03:59:09 26.37 Km\h S-WORKS SL5 TARMAC
15/06/2016 Show to everybody 15giu 91.33 Km 1304 m 03:17:53 27.69 Km\h S-WORKS SL5 TARMAC
14/06/2016 Show to everybody giro 64.68 Km 939 m 02:15:05 28.73 Km\h S-WORKS SL5 TARMAC
12/06/2016 Show to everybody giro_mattutino 91.38 Km 1609 m 04:06:22 22.26 Km\h S-WORKS SL5 TARMAC
11/06/2016 Show to everybody giro_mattutino-2 126.72 Km 1696 m 05:00:11 25.33 Km\h S-WORKS SL5 TARMAC
09/06/2016 Show to everybody giro_mattutino 87.03 Km 613 m 03:11:10 27.32 Km\h S-WORKS SL5 TARMAC
08/06/2016 Show to everybody giro_mattutino 41.44 Km 271 m 01:27:45 28.33 Km\h S-WORKS SL5 TARMAC
07/06/2016 Show to everybody primo_giro_mari_e_monti_2016_ 103.01 Km 2021 m 03:53:49 26.43 Km\h S-WORKS SL5 TARMAC
05/06/2016 Show to everybody giro_mattutino 99.63 Km 1868 m 04:31:46 22 Km\h S-WORKS SL5 TARMAC
03/06/2016 Show to everybody giro_mattutino 57.96 Km 284 m 02:03:06 28.25 Km\h S-WORKS SL5 TARMAC
02/06/2016 Show to everybody giro_mattutino 117.1 Km 1453 m 04:23:51 26.63 Km\h S-WORKS SL5 TARMAC
31/05/2016 Show to everybody giro_mattutino 53.57 Km 745 m 01:54:01 28.19 Km\h S-WORKS SL5 TARMAC
30/05/2016 Show to everybody giro_mattutino 68.65 Km 379 m 02:38:33 25.98 Km\h S-WORKS SL5 TARMAC
29/05/2016 Show to everybody 2_mf_valle_dell_esaro 104.29 Km 1755 m 03:09:21 33.05 Km\h S-WORKS SL5 TARMAC
28/05/2016 Show to everybody giro_mattutino 47.12 Km 322 m 01:53:50 24.83 Km\h S-WORKS SL5 TARMAC
26/05/2016 Show to everybody giro_mattutino 70.95 Km 432 m 02:40:20 26.55 Km\h S-WORKS SL5 TARMAC
25/05/2016 Show to everybody activity_1183476970 122.43 Km 1321 m 04:32:36 26.95 Km\h S-WORKS SL5 TARMAC
24/05/2016 Show to everybody giro_pomeridiano 55.28 Km 854 m 01:57:12 28.3 Km\h S-WORKS SL5 TARMAC
22/05/2016 Show to everybody giro_mattutino 143.82 Km 2880 m 05:51:47 24.53 Km\h S-WORKS SL5 TARMAC
19/05/2016 Show to everybody 67 107.69 Km 1863 m 03:54:39 27.54 Km\h S-WORKS SL5 TARMAC
18/05/2016 Show to everybody activity_1173537881 93.87 Km 1301 m 03:16:50 28.62 Km\h S-WORKS SL5 TARMAC
17/05/2016 Show to everybody giro_mattutino 71.88 Km 879 m 02:33:38 28.07 Km\h S-WORKS SL5 TARMAC
16/05/2016 Show to everybody giro_pomeridiano 69.66 Km 494 m 02:23:03 29.22 Km\h S-WORKS SL5 TARMAC
14/05/2016 Show to everybody giro_mattutino 71.96 Km 659 m 02:56:58 24.4 Km\h S-WORKS SL5 TARMAC
13/05/2016 Show to everybody giro_mattutino 75.33 Km 1035 m 02:42:27 27.82 Km\h S-WORKS SL5 TARMAC
11/05/2016 Show to everybody giro_mattutino 54.73 Km 500 m 01:54:21 28.72 Km\h S-WORKS SL5 TARMAC
09/05/2016 Show to everybody giro_mattutino 64.01 Km 321 m 02:24:52 26.51 Km\h S-WORKS SL5 TARMAC
08/05/2016 Show to everybody 3_gf_citt_di_bagnara_2016 116.49 Km 2252 m 03:44:31 31.13 Km\h S-WORKS SL5 TARMAC
07/05/2016 Show to everybody giro_mattutino 39.98 Km 241 m 01:35:14 25.19 Km\h S-WORKS SL5 TARMAC
06/05/2016 Show to everybody giro_mattutino 40.37 Km 299 m 01:27:23 27.72 Km\h S-WORKS SL5 TARMAC
05/05/2016 Show to everybody giro_mattutino 87.7 Km 647 m 03:00:53 29.09 Km\h S-WORKS SL5 TARMAC
03/05/2016 Show to everybody giro_dell_ora_di_pranzo 81.74 Km 1160 m 02:53:16 28.31 Km\h S-WORKS SL5 TARMAC
02/05/2016 Show to everybody mordi_e_fuggi_ 33.73 Km 307 m 01:04:43 31.27 Km\h S-WORKS SL5 TARMAC
30/04/2016 Show to everybody giro_mattutino 130.7 Km 1641 m 05:00:35 26.09 Km\h S-WORKS SL5 TARMAC
28/04/2016 Show to everybody giro_mattutino 52.67 Km 582 m 02:02:42 25.76 Km\h S-WORKS SL5 TARMAC
27/04/2016 Show to everybody giro_mattutino 68.67 Km 1048 m 02:27:25 27.95 Km\h S-WORKS SL5 TARMAC
26/04/2016 Show to everybody giro_dell_ora_di_pranzo 61.23 Km 1005 m 02:15:02 27.2 Km\h S-WORKS SL5 TARMAC
23/04/2016 Show to everybody giro_mattutino 82.06 Km 499 m 02:51:11 28.76 Km\h S-WORKS SL5 TARMAC
21/04/2016 Show to everybody giro_mattutino 64.95 Km 703 m 02:27:53 26.35 Km\h S-WORKS SL5 TARMAC
20/04/2016 Show to everybody giro_mattutino 67.45 Km 1165 m 02:48:18 24.05 Km\h S-WORKS SL5 TARMAC
19/04/2016 Show to everybody giro_mattutino 61.43 Km 978 m 02:16:22 27.03 Km\h S-WORKS SL5 TARMAC
17/04/2016 Show to everybody randocalabriaextreme 199.95 Km 4085 m 07:59:31 25.02 Km\h S-WORKS SL5 TARMAC
16/04/2016 Show to everybody giro_mattutino 81.83 Km 461 m 02:53:20 28.32 Km\h S-WORKS SL5 TARMAC
14/04/2016 Show to everybody giro_mattutino 40.12 Km 249 m 01:29:15 26.97 Km\h S-WORKS SL5 TARMAC
13/04/2016 Show to everybody giro_mattutino 139.62 Km 1636 m 05:12:40 26.79 Km\h S-WORKS SL5 TARMAC
12/04/2016 Show to everybody giro_mattutino 52.68 Km 463 m 02:03:38 25.57 Km\h S-WORKS SL5 TARMAC
10/04/2016 Show to everybody giro_mattutino 130.53 Km 1773 m 04:38:16 28.15 Km\h S-WORKS SL5 TARMAC
09/04/2016 Show to everybody giro_mattutino 106.74 Km 786 m 03:45:14 28.43 Km\h S-WORKS SL5 TARMAC
06/04/2016 Show to everybody giro_mattutino 78 Km 928 m 02:50:27 27.46 Km\h S-WORKS SL5 TARMAC
05/04/2016 Show to everybody giro_mattutino 92.17 Km 1223 m 03:17:19 28.03 Km\h S-WORKS SL5 TARMAC
03/04/2016 Show to everybody giro_mattutino 107.01 Km 999 m 04:05:01 26.21 Km\h S-WORKS SL5 TARMAC
02/04/2016 Show to everybody giro_mattutino 131.76 Km 1600 m 04:51:35 27.11 Km\h S-WORKS SL5 TARMAC
01/04/2016 Show to everybody activity_1107146766 59.75 Km 700 m 02:15:05 26.54 Km\h S-WORKS SL5 TARMAC
31/03/2016 Show to everybody activity_1105888638 69.94 Km 1177 m 02:45:56 25.29 Km\h S-WORKS SL5 TARMAC
29/03/2016 Show to everybody giro 169.93 Km 2292 m 06:08:55 27.64 Km\h S-WORKS SL5 TARMAC
27/03/2016 Show to everybody buona_pasqua_ 91.29 Km 958 m 03:35:40 25.4 Km\h S-WORKS SL5 TARMAC
26/03/2016 Show to everybody giro_mattutino 112.99 Km 1002 m 04:05:01 27.67 Km\h S-WORKS SL5 TARMAC
25/03/2016 Show to everybody giro_in_relax_con_andrea 82.14 Km 749 m 03:08:32 26.14 Km\h S-WORKS SL5 TARMAC
24/03/2016 Show to everybody giro_dell_ora_di_pranzo 45.77 Km 538 m 01:44:38 26.25 Km\h S-WORKS SL5 TARMAC
22/03/2016 Show to everybody activity_1094665588 64.14 Km 799 m 02:31:17 25.44 Km\h S-WORKS SL5 TARMAC
21/03/2016 Show to everybody activity_1093589518 39.55 Km 292 m 01:26:38 27.39 Km\h S-WORKS SL5 TARMAC
20/03/2016 Show to everybody gradita_visita_tecknomax_con_un_gran_bel_giro_ 130 Km 1149 m 04:18:20 30.19 Km\h S-WORKS SL5 TARMAC
19/03/2016 Show to everybody giro_mattutino 100.75 Km 679 m 03:44:28 26.93 Km\h S-WORKS SL5 TARMAC
18/03/2016 Show to everybody giro_mattutino 75.27 Km 722 m 02:50:19 26.52 Km\h S-WORKS SL5 TARMAC
16/03/2016 Show to everybody pri 57 Km 463 m 02:14:59 25.34 Km\h S-WORKS SL5 TARMAC
14/03/2016 Show to everybody giro_dell_ora_di_pranzo 51.23 Km 466 m 01:47:45 28.53 Km\h S-WORKS SL5 TARMAC
13/03/2016 Show to everybody activity_1083109185 95 Km 737 m 03:21:23 28.31 Km\h S-WORKS SL5 TARMAC
10/03/2016 Show to everybody activity_1079479525 109.83 Km 1301 m 04:01:12 27.32 Km\h S-WORKS SL5 TARMAC
09/03/2016 Show to everybody activity_1078428724 68.02 Km 975 m 02:29:49 27.24 Km\h S-WORKS SL5 TARMAC
08/03/2016 Show to everybody activity_1077209339 35.19 Km 348 m 01:14:17 28.42 Km\h S-WORKS SL5 TARMAC
06/03/2016 Show to everybody activity_1074684576 84.52 Km 533 m 03:00:18 28.13 Km\h S-WORKS SL5 TARMAC
05/03/2016 Show to everybody activity_1073496007 131.4 Km 1523 m 04:37:58 28.36 Km\h S-WORKS SL5 TARMAC
02/03/2016 Show to everybody activity_1070350555 69.83 Km 1020 m 02:32:32 27.47 Km\h S-WORKS SL5 TARMAC
27/02/2016 Show to everybody activity_1065303548 112.2 Km 1101 m 03:54:24 28.72 Km\h S-WORKS SL5 TARMAC
26/02/2016 Show to everybody activity_1064014272 47.54 Km 820 m 01:40:18 28.44 Km\h S-WORKS SL5 TARMAC
25/02/2016 Show to everybody activity_1062845879 65.16 Km 1793 m 02:35:04 25.21 Km\h S-WORKS SL5 TARMAC
23/02/2016 Show to everybody activity_1060667258 82.93 Km 1136 m 03:09:16 26.29 Km\h S-WORKS SL5 TARMAC
20/02/2016 Show to everybody activity_1056805426 104.33 Km 831 m 03:49:07 27.32 Km\h S-WORKS SL5 TARMAC
19/02/2016 Show to everybody activity_1055906776 93.01 Km 1225 m 03:23:36 27.41 Km\h S-WORKS SL5 TARMAC
17/02/2016 Show to everybody activity_1053665477 54.66 Km 653 m 02:03:11 26.62 Km\h S-WORKS SL5 TARMAC
16/02/2016 Show to everybody activity_1052527473 51.74 Km 284 m 01:58:31 26.19 Km\h S-WORKS SL5 TARMAC
15/02/2016 Show to everybody activity_1051449344 66.55 Km 774 m 02:46:13 24.02 Km\h S-WORKS SL5 TARMAC
09/02/2016 Show to everybody giro mattutino 62.19 Km 969 m 02:30:37 24.77 Km\h S-WORKS SL5 TARMAC
07/02/2016 Show to everybody link video in descrizione ;-) 109.51 Km 727 m 03:32:49 30.87 Km\h S-WORKS SL5 TARMAC
06/02/2016 Show to everybody giro mattutino 115.82 Km 972 m 04:09:44 27.83 Km\h S-WORKS SL5 TARMAC
03/02/2016 Show to everybody activity_1037793583 60.9 Km 1448 m 02:29:43 24.41 Km\h S-WORKS SL5 TARMAC
02/02/2016 Show to everybody activity_1036651790 54.42 Km 743 m 02:08:07 25.48 Km\h S-WORKS SL5 TARMAC
31/01/2016 Show to everybody activity_1034051172 99.02 Km 1272 m 04:01:45 24.58 Km\h S-WORKS SL5 TARMAC
30/01/2016 Show to everybody activity_1032498926 100.45 Km 677 m 03:42:11 27.13 Km\h S-WORKS SL5 TARMAC
28/01/2016 Show to everybody activity_1030573667 70.72 Km 1138 m 02:39:24 26.62 Km\h S-WORKS SL5 TARMAC
27/01/2016 Show to everybody activity_1029464886 62.89 Km 1447 m 02:34:58 24.35 Km\h S-WORKS SL5 TARMAC
26/01/2016 Show to everybody activity_1028248824 70.9 Km 838 m 02:48:07 25.3 Km\h S-WORKS SL5 TARMAC
25/01/2016 Show to everybody activity_1027136284 32.82 Km 462 m 01:20:45 24.39 Km\h S-WORKS SL5 TARMAC
24/01/2016 Show to everybody activity_1025741103 110.4 Km 718 m 03:59:05 27.71 Km\h S-WORKS SL5 TARMAC
23/01/2016 Show to everybody activity_1024484372 104.35 Km 1216 m 03:56:50 26.44 Km\h S-WORKS SL5 TARMAC
21/01/2016 Show to everybody activity_1022527461 55.48 Km 466 m 01:48:30 30.68 Km\h S-WORKS SL5 TARMAC
18/01/2016 Show to everybody activity_1019215536 41.91 Km 264 m 01:40:50 24.94 Km\h S-WORKS SL5 TARMAC
17/01/2016 Show to everybody activity_1017889182 99.95 Km 713 m 03:48:29 26.25 Km\h S-WORKS SL5 TARMAC
15/01/2016 Show to everybody activity_1015367450 42.71 Km 345 m 01:42:02 25.11 Km\h S-WORKS SL5 TARMAC
14/01/2016 Show to everybody activity_1014425040 91.06 Km 612 m 03:10:37 28.66 Km\h S-WORKS SL5 TARMAC
02/01/2016 Show to everybody activity_1000445814 82.27 Km 490 m 03:01:59 27.13 Km\h S-WORKS SL5 TARMAC
30/12/2015 Show to everybody activity_997256059 115.11 Km 1263 m 04:27:51 25.78 Km\h S-WORKS SL5 TARMAC
27/12/2015 Show to everybody activity_993723290 75.85 Km 1085 m 02:57:10 25.69 Km\h S-WORKS SL5 TARMAC
26/12/2015 Show to everybody activity_992505463 106.06 Km 844 m 03:52:37 27.36 Km\h S-WORKS SL5 TARMAC
24/12/2015 Show to everybody activity_990777544 102 Km 657 m 03:25:37 29.76 Km\h S-WORKS SL5 TARMAC
23/12/2015 Show to everybody activity_989939452 39.84 Km 238 m 01:33:27 25.58 Km\h S-WORKS SL5 TARMAC
20/12/2015 Show to everybody activity_987369261 105.79 Km 923 m 04:02:13 26.21 Km\h S-WORKS SL5 TARMAC
19/12/2015 Show to everybody activity_986404954 100.82 Km 717 m 03:41:38 27.29 Km\h S-WORKS SL5 TARMAC
16/12/2015 Show to everybody activity_984267781 51.3 Km 432 m 01:54:28 26.89 Km\h S-WORKS SL5 TARMAC
13/12/2015 Show to everybody activity_981678388 103.55 Km 799 m 04:07:38 25.09 Km\h S-WORKS SL5 TARMAC
12/12/2015 Show to everybody 12-12-15 08-31-34 101.12 Km 704 m 03:59:01 25.38 Km\h S-WORKS SL5 TARMAC
08/12/2015 Show to everybody 08-12-15 08-28-45 93 Km 871 m 03:36:30 25.77 Km\h S-WORKS SL5 TARMAC
06/12/2015 Show to everybody 06-12-15 08-40-08 100.89 Km 706 m 04:06:08 24.59 Km\h S-WORKS SL5 TARMAC
05/12/2015 Show to everybody 05-12-15 08-41-54 107.87 Km 790 m 04:06:34 26.25 Km\h S-WORKS SL5 TARMAC
03/12/2015 Show to everybody activity_973321076 65.6 Km 515 m 03:33:47 25.6 Km\h S-WORKS SL5 TARMAC
02/12/2015 Show to everybody activity_972860619 41.41 Km 273 m 01:31:05 27.28 Km\h S-WORKS SL5 TARMAC
30/11/2015 Show to everybody activity_971223570 76.62 Km 893 m 02:56:13 26.09 Km\h S-WORKS SL5 TARMAC
29/11/2015 Show to everybody 29-11-15 08-51-05 100.41 Km 674 m 03:46:50 26.56 Km\h S-WORKS SL5 TARMAC
23/11/2015 Show to everybody 23-11-15 09-14-41 53.22 Km 437 m 02:11:49 24.23 Km\h S-WORKS SL5 TARMAC
20/11/2015 Show to everybody 20-11-15 09-53-37 70.05 Km 607 m 02:39:48 26.3 Km\h S-WORKS SL5 TARMAC
18/11/2015 Show to everybody 18-11-15 08-51-49 102.15 Km 658 m 04:03:42 25.15 Km\h S-WORKS SL5 TARMAC
17/11/2015 Show to everybody activity_959470398 44.76 Km 263 m 01:47:44 24.93 Km\h S-WORKS SL5 TARMAC
15/11/2015 Show to everybody 15-11-15 08-05-52 104.86 Km 706 m 03:45:26 27.91 Km\h S-WORKS SL5 TARMAC
14/11/2015 Show to everybody giro mattutino 88.84 Km 606 m 03:24:16 26.09 Km\h S-WORKS SL5 TARMAC
13/11/2015 Show to everybody giro mattutino 41.66 Km 305 m 01:36:40 25.86 Km\h S-WORKS SL5 TARMAC
12/11/2015 Show to everybody giro dell`ora di pranzo 90 Km 447 m 03:27:46 25.99 Km\h S-WORKS SL5 TARMAC
11/11/2015 Show to everybody activity_953868324 110.4 Km 809 m 03:54:56 28.2 Km\h S-WORKS SL5 TARMAC
08/11/2015 Show to everybody activity_950838183 107.99 Km 777 m 04:07:51 26.14 Km\h S-WORKS SL5 TARMAC
07/11/2015 Show to everybody activity_949688726 100.65 Km 673 m 03:53:11 25.9 Km\h S-WORKS SL5 TARMAC
06/11/2015 Show to everybody activity_948787192 63.87 Km 366 m 02:21:16 27.13 Km\h S-WORKS SL5 TARMAC
05/11/2015 Show to everybody activity_948265783 65.21 Km 429 m 02:32:01 25.74 Km\h S-WORKS SL5 TARMAC
03/11/2015 Show to everybody activity_946199057 124.58 Km 1738 m 04:50:19 25.75 Km\h S-WORKS SL5 TARMAC
01/11/2015 Show to everybody 01-11-15 08-24-37 45.95 Km 300 m 02:01:37 22.67 Km\h S-WORKS SL5 TARMAC
31/10/2015 Show to everybody 31o 26.2 Km 164 m 00:56:42 27.73 Km\h S-WORKS SL5 TARMAC
28/10/2015 Show to everybody giro mattutino 81.63 Km 596 m 03:20:03 24.48 Km\h S-WORKS SL5 TARMAC
26/10/2015 Show to everybody Allenamento 26-10-15 alle 09:40 40 Km 279 m 01:23:59 28.58 Km\h S-WORKS SL5 TARMAC
25/10/2015 Show to everybody giro mattutino 97.69 Km 645 m 03:30:32 27.84 Km\h S-WORKS SL5 TARMAC
24/10/2015 Show to everybody 24 ott 104.07 Km 706 m 04:00:50 25.93 Km\h S-WORKS SL5 TARMAC
20/10/2015 Show to everybody Allenamento 20-10-15 alle 07:57 50.81 Km 552 m 01:53:00 26.98 Km\h S-WORKS SL5 TARMAC
18/10/2015 Show to everybody 5tg 103.34 Km 702 m 03:52:56 26.62 Km\h S-WORKS SL5 TARMAC
17/10/2015 Show to everybody Allenamento 17-10-15 alle 06:07 84.16 Km 466 m 03:13:40 26.07 Km\h S-WORKS SL5 TARMAC
16/10/2015 Show to everybody Allenamento 16-10-15 alle 11:40 57.73 Km 295 m 01:54:14 30.32 Km\h S-WORKS SL5 TARMAC
13/10/2015 Show to everybody Allenamento 13-10-15 alle 10:08 37.12 Km 576 m 01:26:32 25.74 Km\h S-WORKS SL5 TARMAC
12/10/2015 Show to everybody 12 ott 95.46 Km 432 m 03:35:30 26.58 Km\h S-WORKS SL5 TARMAC
09/10/2015 Show to everybody Allenamento 09-10-15 alle 09:32 39.2 Km 302 m 01:16:52 30.6 Km\h S-WORKS SL5 TARMAC
08/10/2015 Show to everybody Allenamento 08-10-15 alle 07:16 73.03 Km 313 m 02:35:20 28.21 Km\h S-WORKS SL5 TARMAC
05/10/2015 Show to everybody Allenamento 05-10-15 alle 07:37 32.42 Km 82 m 01:07:14 28.93 Km\h S-WORKS SL5 TARMAC
04/10/2015 Show to everybody Allenamento 04-10-15 alle 11:57 66.87 Km 383 m 02:13:32 30.05 Km\h S-WORKS SL5 TARMAC
27/09/2015 Show to everybody Allenamento 27-09-15 alle 08:01 53.37 Km 503 m 01:58:28 27.03 Km\h S-WORKS SL5 TARMAC
26/09/2015 Show to everybody Allenamento 26-09-15 alle 07:09 80.15 Km 500 m 02:56:30 27.25 Km\h S-WORKS SL5 TARMAC
23/09/2015 Show to everybody 23 set 113.54 Km 886 m 04:07:22 27.54 Km\h S-WORKS SL5 TARMAC
22/09/2015 Show to everybody Allenamento 22-09-15 alle 06:23 92.8 Km 692 m 03:27:00 26.9 Km\h S-WORKS SL5 TARMAC
20/09/2015 Show to everybody Allenamento 20-09-15 alle 08:14 10.78 Km 107 m 00:26:47 24.14 Km\h S-WORKS SL5 TARMAC
20/09/2015 Show to everybody Allenamento 20-09-15 alle 08:45 47.71 Km 590 m 01:15:22 37.99 Km\h S-WORKS SL5 TARMAC
19/09/2015 Show to everybody Allenamento 19-09-15 alle 07:31 41.99 Km 229 m 01:49:49 22.94 Km\h S-WORKS SL5 TARMAC
18/09/2015 Show to everybody Allenamento 18-09-15 alle 06:37 72.03 Km 446 m 02:41:40 26.73 Km\h S-WORKS SL5 TARMAC
16/09/2015 Show to everybody 108 107.73 Km 1052 m 03:51:45 27.89 Km\h S-WORKS SL5 TARMAC
15/09/2015 Show to everybody Allenamento 15-09-15 alle 07:13 67.92 Km 380 m 02:18:58 29.33 Km\h S-WORKS SL5 TARMAC
13/09/2015 Show to everybody Allenamento 13-09-15 alle 07:42 20.79 Km 320 m 00:56:17 22.16 Km\h S-WORKS SL5 TARMAC
13/09/2015 Show to everybody Allenamento 13-09-15 alle 08:43 65.04 Km 922 m 01:48:09 36.09 Km\h S-WORKS SL5 TARMAC
12/09/2015 Show to everybody Allenamento 12-09-15 alle 07:55 53.68 Km 469 m 02:06:21 25.49 Km\h S-WORKS SL5 TARMAC
11/09/2015 Show to everybody Allenamento 11-09-15 alle 13:39 68.36 Km 455 m 02:18:44 29.57 Km\h S-WORKS SL5 TARMAC
08/09/2015 Show to everybody Allenamento 08-09-15 alle 06:12 59.93 Km 649 m 01:59:32 30.08 Km\h S-WORKS SL5 TARMAC
07/09/2015 Show to everybody Allenamento 07-09-15 alle 10:31 72.08 Km 565 m 02:26:57 29.43 Km\h S-WORKS SL5 TARMAC
02/09/2015 Show to everybody 2 set 147.54 Km 1247 m 05:10:20 28.53 Km\h S-WORKS SL5 TARMAC
01/09/2015 Show to everybody Allenamento 01-09-15 alle 07:19 66.69 Km 1093 m 02:34:32 25.89 Km\h S-WORKS SL5 TARMAC
30/08/2015 Show to everybody 30 ago 174.89 Km 3161 m 07:12:32 24.26 Km\h S-WORKS SL5 TARMAC
29/08/2015 Show to everybody 28 agos 33.16 Km 306 m 01:13:51 26.94 Km\h S-WORKS SL5 TARMAC
28/08/2015 Show to everybody 29 ago 49.15 Km 1215 m 02:12:13 22.3 Km\h S-WORKS SL5 TARMAC
27/08/2015 Show to everybody 27 ago 99.98 Km 1454 m 04:37:54 21.59 Km\h S-WORKS SL5 TARMAC
26/08/2015 Show to everybody 26 ago 24.64 Km 290 m 00:53:35 27.59 Km\h S-WORKS SL5 TARMAC
25/08/2015 Show to everybody 25 ago 40.07 Km 264 m 01:25:34 28.1 Km\h S-WORKS SL5 TARMAC
23/08/2015 Show to everybody 23 ago 29 Km 82 m 01:02:46 27.72 Km\h S-WORKS SL5 TARMAC
21/08/2015 Show to everybody 21 ago 61.21 Km 748 m 02:14:46 27.25 Km\h S-WORKS SL5 TARMAC
18/08/2015 Show to everybody 18 ago 107.23 Km 1064 m 03:32:24 30.29 Km\h S-WORKS SL5 TARMAC
17/08/2015 Show to everybody 17 ago 50.28 Km 760 m 01:47:36 28.04 Km\h S-WORKS SL5 TARMAC
17/08/2015 Show to everybody 17 ago 2 35.09 Km 318 m 01:27:37 24.03 Km\h S-WORKS SL5 TARMAC
14/08/2015 Show to everybody 14 ago 89.21 Km 1915 m 03:45:48 23.7 Km\h S-WORKS SL5 TARMAC
13/08/2015 Show to everybody 13 ago 50.52 Km 587 m 02:02:10 24.81 Km\h S-WORKS SL5 TARMAC
12/08/2015 Show to everybody 12 ago 101.36 Km 1654 m 03:53:33 26.04 Km\h S-WORKS SL5 TARMAC
11/08/2015 Show to everybody 11 ago 68.05 Km 639 m 02:20:51 28.99 Km\h S-WORKS SL5 TARMAC
09/08/2015 Show to everybody 9 ago 54.93 Km 699 m 02:16:40 24.12 Km\h S-WORKS SL5 TARMAC
08/08/2015 Show to everybody 8 ago 95.12 Km 1739 m 03:35:49 26.44 Km\h S-WORKS SL5 TARMAC
07/08/2015 Show to everybody 7 ago 51.76 Km 756 m 01:59:38 25.96 Km\h S-WORKS SL5 TARMAC
05/08/2015 Show to everybody Allenamento 05-08-15 alle 07:49 37.36 Km 242 m 01:20:50 27.73 Km\h S-WORKS SL5 TARMAC
04/08/2015 Show to everybody 154 70.27 Km 565 m 02:25:11 29.04 Km\h S-WORKS SL5 TARMAC
02/08/2015 Show to everybody 153 150.95 Km 2469 m 05:45:21 26.23 Km\h S-WORKS SL5 TARMAC
01/08/2015 Show to everybody Allenamento 01-08-15 alle 12:22 58.73 Km 873 m 02:18:09 25.51 Km\h S-WORKS SL5 TARMAC
30/07/2015 Show to everybody Allenamento 30-07-15 alle 08:25 39.1 Km 234 m 01:30:04 26.05 Km\h S-WORKS SL5 TARMAC
29/07/2015 Show to everybody 29-07-15 162.12 Km 2203 m 05:52:07 27.62 Km\h S-WORKS SL5 TARMAC
28/07/2015 Show to everybody Allenamento 28-07-15 alle 05:09 67.39 Km 1073 m 02:31:41 26.66 Km\h S-WORKS SL5 TARMAC
27/07/2015 Show to everybody Allenamento 27-07-15 alle 07:25 42.44 Km 289 m 01:31:10 27.93 Km\h S-WORKS SL5 TARMAC
26/07/2015 Show to everybody Allenamento 26-07-15 alle 12:49 32.47 Km 471 m 01:13:38 26.46 Km\h S-WORKS SL5 TARMAC
25/07/2015 Show to everybody Allenamento 25-07-15 alle 04:58 51.14 Km 775 m 01:47:22 28.58 Km\h S-WORKS SL5 TARMAC
24/07/2015 Show to everybody Allenamento 24-07-15 alle 15:08 41.07 Km 232 m 01:24:10 29.28 Km\h S-WORKS SL5 TARMAC
22/07/2015 Show to everybody Allenamento 22-07-15 alle 15:42 51.32 Km 390 m 01:46:40 28.87 Km\h S-WORKS SL5 TARMAC
21/07/2015 Show to everybody Allenamento 21-07-15 alle 04:56 71.06 Km 847 m 02:50:46 24.97 Km\h S-WORKS SL5 TARMAC
19/07/2015 Show to everybody mare e monti 104.17 Km 1984 m 03:57:40 26.3 Km\h S-WORKS SL5 TARMAC
18/07/2015 Show to everybody Allenamento 18-07-15 alle 05:34 81.23 Km 1739 m 03:14:02 25.12 Km\h S-WORKS SL5 TARMAC
17/07/2015 Show to everybody Allenamento 17-07-15 alle 04:30 51.08 Km 385 m 01:43:40 29.56 Km\h S-WORKS SL5 TARMAC
15/07/2015 Show to everybody 15 luglio 2015 110.6 Km 2270 m 04:39:58 23.7 Km\h S-WORKS SL5 TARMAC
14/07/2015 Show to everybody Allenamento 14-07-15 alle 04:25 66.01 Km 1110 m 02:30:28 26.32 Km\h S-WORKS SL5 TARMAC
12/07/2015 Show to everybody Allenamento 12-07-15 alle 05:19 51.45 Km 761 m 01:55:13 26.79 Km\h S-WORKS SL5 TARMAC
11/07/2015 Show to everybody Allenamento 11-07-15 alle 05:21 81.66 Km 1046 m 02:52:55 28.33 Km\h S-WORKS SL5 TARMAC
10/07/2015 Show to everybody Allenamento 10-07-15 alle 14:32 64.54 Km 677 m 02:30:06 25.8 Km\h S-WORKS SL5 TARMAC
07/07/2015 Show to everybody Allenamento 07-07-15 alle 15:51 57.74 Km 696 m 02:07:54 27.08 Km\h S-WORKS SL5 TARMAC
05/07/2015 Show to everybody 05-07-15 96.83 Km 1378 m 03:43:05 26.04 Km\h S-WORKS SL5 TARMAC
04/07/2015 Show to everybody Allenamento 04-07-15 alle 06:02 67.59 Km 393 m 02:22:03 28.55 Km\h S-WORKS SL5 TARMAC
02/07/2015 Show to everybody Allenamento 02-07-15 alle 18:47 0.05 Km 0 m 00:00:00 0 Km\h S-WORKS SL5 TARMAC
28/06/2015 Show to everybody 28-06-15 184.61 Km 3064 m 07:24:56 24.9 Km\h S-WORKS SL5 TARMAC
27/06/2015 Show to everybody 27-06-15 111.91 Km 878 m 03:47:00 29.58 Km\h S-WORKS SL5 TARMAC
25/06/2015 Show to everybody Allenamento 25-06-15 alle 15:33 51.42 Km 1109 m 02:01:18 25.43 Km\h S-WORKS SL5 TARMAC
24/06/2015 Show to everybody Allenamento 24-06-15 alle 15:47 36.42 Km 559 m 01:19:06 27.63 Km\h S-WORKS SL5 TARMAC
23/06/2015 Show to everybody Allenamento 23-06-15 alle 15:22 58.8 Km 1105 m 02:19:04 25.37 Km\h S-WORKS SL5 TARMAC
21/06/2015 Show to everybody 21-06-15 107.45 Km 685 m 03:51:44 27.82 Km\h S-WORKS SL5 TARMAC
20/06/2015 Show to everybody 20-06-15 101.33 Km 875 m 03:45:06 27.01 Km\h S-WORKS SL5 TARMAC
19/06/2015 Show to everybody Allenamento 19-06-15 alle 15:39 61.46 Km 579 m 02:09:02 28.58 Km\h S-WORKS SL5 TARMAC
18/06/2015 Show to everybody Allenamento 18-06-15 alle 04:51 38.08 Km 574 m 01:24:13 27.13 Km\h S-WORKS SL5 TARMAC
16/06/2015 Show to everybody Allenamento 16-06-15 alle 15:47 49.37 Km 654 m 01:43:08 28.72 Km\h S-WORKS SL5 TARMAC
14/06/2015 Show to everybody Allenamento 14-06-15 alle 06:02 85.58 Km 1690 m 03:29:18 24.53 Km\h S-WORKS SL5 TARMAC
13/06/2015 Show to everybody Allenamento 13-06-15 alle 05:12 82.39 Km 479 m 03:02:44 27.05 Km\h S-WORKS SL5 TARMAC
12/06/2015 Show to everybody Allenamento 12-06-15 alle 15:42 57.61 Km 699 m 02:01:45 28.39 Km\h S-WORKS SL5 TARMAC
11/06/2015 Show to everybody Allenamento 11-06-15 alle 15:41 62.72 Km 604 m 02:02:20 30.76 Km\h S-WORKS SL5 TARMAC
10/06/2015 Show to everybody Allenamento 10-06-15 alle 05:02 50.58 Km 656 m 01:49:20 27.76 Km\h S-WORKS SL5 TARMAC
07/06/2015 Show to everybody Allenamento 07-06-15 alle 05:49 110.01 Km 969 m 04:08:28 26.57 Km\h S-WORKS SL5 TARMAC
06/06/2015 Show to everybody Allenamento 06-06-15 alle 05:58 105.25 Km 2025 m 03:55:09 26.85 Km\h S-WORKS SL5 TARMAC
04/06/2015 Show to everybody Allenamento 04-06-15 alle 05:43 109.91 Km 713 m 03:28:41 31.6 Km\h S-WORKS SL5 TARMAC
02/06/2015 Show to everybody 2-6-15 121.46 Km 2115 m 04:51:43 24.98 Km\h S-WORKS SL5 TARMAC
31/05/2015 Show to everybody Allenamento 31-05-15 alle 14:02 50.22 Km 1205 m 01:34:28 31.9 Km\h S-WORKS SL5 TARMAC
30/05/2015 Show to everybody Allenamento 30-05-15 alle 06:55 20.72 Km 56 m 00:47:56 25.93 Km\h S-WORKS SL5 TARMAC
29/05/2015 Show to everybody Allenamento 29-05-15 alle 06:44 72.11 Km 957 m 02:48:11 25.73 Km\h S-WORKS SL5 TARMAC
26/05/2015 Show to everybody 26-05-15 124.72 Km 1555 m 04:19:37 28.82 Km\h S-WORKS SL5 TARMAC
25/05/2015 Show to everybody Allenamento 25-05-15 alle 10:32 51.64 Km 1049 m 01:55:00 26.94 Km\h S-WORKS SL5 TARMAC
25/05/2015 Show to everybody Allenamento 24-05-15 alle 07:17 0.42 Km 0 m 00:01:08 21.98 Km\h S-WORKS SL5 TARMAC
23/05/2015 Show to everybody Allenamento 23-05-15 alle 12:52 68.55 Km 381 m 02:29:01 27.6 Km\h S-WORKS SL5 TARMAC
22/05/2015 Show to everybody Allenamento 22-05-15 alle 07:16 72.61 Km 1051 m 02:39:35 27.3 Km\h S-WORKS SL5 TARMAC
20/05/2015 Show to everybody Allenamento 20-05-15 alle 06:54 104.42 Km 1819 m 03:53:04 26.88 Km\h S-WORKS SL5 TARMAC
17/05/2015 Show to everybody Allenamento 17-05-15 alle 06:44 79.98 Km 1002 m 03:11:40 25.04 Km\h S-WORKS SL5 TARMAC
16/05/2015 Show to everybody Allenamento 16-05-15 alle 05:53 100.37 Km 643 m 03:30:20 28.63 Km\h S-WORKS SL5 TARMAC
15/05/2015 Show to everybody 15-05-15 134.04 Km 1002 m 04:51:55 27.55 Km\h S-WORKS SL5 TARMAC
14/05/2015 Show to everybody Allenamento 14-05-15 alle 07:10 95.26 Km 744 m 03:33:03 26.83 Km\h S-WORKS SL5 TARMAC
13/05/2015 Show to everybody Allenamento 13-05-15 alle 09:41 51.5 Km 709 m 01:49:39 28.18 Km\h S-WORKS SL5 TARMAC
12/05/2015 Show to everybody Allenamento 12-05-15 alle 14:31 35.49 Km 904 m 01:23:59 25.36 Km\h S-WORKS SL5 TARMAC
11/05/2015